sensor_id;sensor_type;location;lat;lon;timestamp;pressure;altitude;pressure_sealevel;temperature;humidity
36600;BME280;35385;55.668;37.508;2024-03-07T00:00:08;100171.72;;;-4.01;73.51
36600;BME280;35385;55.668;37.508;2024-03-07T00:01:18;100163.16;;;-4.09;73.35
36600;BME280;35385;55.668;37.508;2024-03-07T00:02:18;100167.59;;;-4.15;73.97
36600;BME280;35385;55.668;37.508;2024-03-07T00:03:18;100163.28;;;-4.18;75.08
36600;BME280;35385;55.668;37.508;2024-03-07T00:04:19;100159.91;;;-4.23;77.58
36600;BME280;35385;55.668;37.508;2024-03-07T00:05:21;100159.94;;;-4.26;79.71
36600;BME280;35385;55.668;37.508;2024-03-07T00:06:21;100163.38;;;-4.24;81.45
36600;BME280;35385;55.668;37.508;2024-03-07T00:07:22;100158.03;;;-4.16;82.29
36600;BME280;35385;55.668;37.508;2024-03-07T00:08:23;100157.81;;;-4.03;83.84
36600;BME280;35385;55.668;37.508;2024-03-07T00:09:23;100156.84;;;-3.94;84.40
36600;BME280;35385;55.668;37.508;2024-03-07T00:10:24;100159.50;;;-3.97;85.16
36600;BME280;35385;55.668;37.508;2024-03-07T00:11:24;100156.81;;;-3.91;85.72
36600;BME280;35385;55.668;37.508;2024-03-07T00:12:25;100155.75;;;-3.81;85.55
36600;BME280;35385;55.668;37.508;2024-03-07T00:13:27;100157.47;;;-3.80;85.93
36600;BME280;35385;55.668;37.508;2024-03-07T00:14:28;100160.03;;;-3.75;86.89
36600;BME280;35385;55.668;37.508;2024-03-07T00:15:28;100161.03;;;-3.85;87.70
36600;BME280;35385;55.668;37.508;2024-03-07T00:16:30;100157.75;;;-3.97;87.99
36600;BME280;35385;55.668;37.508;2024-03-07T00:17:30;100157.94;;;-4.09;88.51
36600;BME280;35385;55.668;37.508;2024-03-07T00:18:31;100158.88;;;-4.13;88.74
36600;BME280;35385;55.668;37.508;2024-03-07T00:19:31;100156.38;;;-4.19;88.53
36600;BME280;35385;55.668;37.508;2024-03-07T00:20:32;100158.22;;;-4.27;88.65
36600;BME280;35385;55.668;37.508;2024-03-07T00:21:32;100152.31;;;-4.40;88.05
36600;BME280;35385;55.668;37.508;2024-03-07T00:22:33;100159.09;;;-4.30;86.14
36600;BME280;35385;55.668;37.508;2024-03-07T00:23:33;100154.78;;;-4.32;83.86
36600;BME280;35385;55.668;37.508;2024-03-07T00:24:34;100151.50;;;-4.43;83.69
36600;BME280;35385;55.668;37.508;2024-03-07T00:25:34;100156.75;;;-4.46;83.95
36600;BME280;35385;55.668;37.508;2024-03-07T00:26:34;100155.78;;;-4.39;83.91
36600;BME280;35385;55.668;37.508;2024-03-07T00:27:35;100154.13;;;-4.46;84.08
36600;BME280;35385;55.668;37.508;2024-03-07T00:28:38;100155.13;;;-4.53;84.36
36600;BME280;35385;55.668;37.508;2024-03-07T00:29:39;100151.66;;;-4.55;85.02
36600;BME280;35385;55.668;37.508;2024-03-07T00:30:40;100151.72;;;-4.62;86.47
36600;BME280;35385;55.668;37.508;2024-03-07T00:31:40;100161.34;;;-4.64;86.69
36600;BME280;35385;55.668;37.508;2024-03-07T00:32:42;100158.75;;;-4.64;86.58
36600;BME280;35385;55.668;37.508;2024-03-07T00:33:42;100150.84;;;-4.59;85.59
36600;BME280;35385;55.668;37.508;2024-03-07T00:34:43;100148.19;;;-4.56;84.74
36600;BME280;35385;55.668;37.508;2024-03-07T00:35:44;100157.78;;;-4.59;84.25
36600;BME280;35385;55.668;37.508;2024-03-07T00:36:44;100153.53;;;-4.64;83.40
36600;BME280;35385;55.668;37.508;2024-03-07T00:37:45;100152.59;;;-4.61;82.50
36600;BME280;35385;55.668;37.508;2024-03-07T00:38:45;100144.75;;;-4.59;81.77
36600;BME280;35385;55.668;37.508;2024-03-07T00:39:46;100145.69;;;-4.62;82.05
36600;BME280;35385;55.668;37.508;2024-03-07T00:40:46;100144.84;;;-4.66;82.79
36600;BME280;35385;55.668;37.508;2024-03-07T00:41:47;100148.38;;;-4.70;83.57
36600;BME280;35385;55.668;37.508;2024-03-07T00:42:47;100146.66;;;-4.71;85.82
36600;BME280;35385;55.668;37.508;2024-03-07T00:43:48;100146.47;;;-4.58;87.34
36600;BME280;35385;55.668;37.508;2024-03-07T00:44:48;100147.50;;;-4.70;87.99
36600;BME280;35385;55.668;37.508;2024-03-07T00:45:51;100145.03;;;-4.79;88.73
36600;BME280;35385;55.668;37.508;2024-03-07T00:46:52;100143.38;;;-4.88;89.44
36600;BME280;35385;55.668;37.508;2024-03-07T00:47:52;100146.00;;;-4.88;89.58
36600;BME280;35385;55.668;37.508;2024-03-07T00:48:53;100146.09;;;-4.94;89.36
36600;BME280;35385;55.668;37.508;2024-03-07T00:49:53;100149.56;;;-4.95;88.52
36600;BME280;35385;55.668;37.508;2024-03-07T00:50:54;100149.53;;;-4.92;86.29
36600;BME280;35385;55.668;37.508;2024-03-07T00:51:54;100143.47;;;-4.91;84.58
36600;BME280;35385;55.668;37.508;2024-03-07T00:52:55;100139.91;;;-4.87;83.22
36600;BME280;35385;55.668;37.508;2024-03-07T00:53:55;100143.31;;;-4.82;82.07
36600;BME280;35385;55.668;37.508;2024-03-07T00:54:56;100139.75;;;-4.75;81.62
36600;BME280;35385;55.668;37.508;2024-03-07T00:55:56;100144.06;;;-4.72;81.39
36600;BME280;35385;55.668;37.508;2024-03-07T00:56:57;100141.47;;;-4.74;80.84
36600;BME280;35385;55.668;37.508;2024-03-07T00:57:58;100140.53;;;-4.67;79.25
36600;BME280;35385;55.668;37.508;2024-03-07T00:58:58;100113.81;;;-4.84;78.77
36600;BME280;35385;55.668;37.508;2024-03-07T00:59:59;100139.63;;;-4.64;79.09
36600;BME280;35385;55.668;37.508;2024-03-07T01:00:59;100140.50;;;-4.65;78.52
36600;BME280;35385;55.668;37.508;2024-03-07T01:02:00;100137.97;;;-4.73;78.75
36600;BME280;35385;55.668;37.508;2024-03-07T01:03:00;100138.81;;;-4.69;78.98
36600;BME280;35385;55.668;37.508;2024-03-07T01:04:01;100138.75;;;-4.65;78.72
36600;BME280;35385;55.668;37.508;2024-03-07T01:05:02;100132.59;;;-4.60;77.22
36600;BME280;35385;55.668;37.508;2024-03-07T01:06:08;100132.56;;;-4.57;76.97
36600;BME280;35385;55.668;37.508;2024-03-07T01:07:10;100134.25;;;-4.52;77.80
36600;BME280;35385;55.668;37.508;2024-03-07T01:08:11;100142.91;;;-4.51;77.22
36600;BME280;35385;55.668;37.508;2024-03-07T01:09:11;100134.97;;;-4.42;76.12
36600;BME280;35385;55.668;37.508;2024-03-07T01:10:15;100134.00;;;-4.35;75.60
36600;BME280;35385;55.668;37.508;2024-03-07T01:11:15;100136.69;;;-4.43;75.38
36600;BME280;35385;55.668;37.508;2024-03-07T01:12:15;100137.53;;;-4.41;74.48
36600;BME280;35385;55.668;37.508;2024-03-07T01:13:17;100135.63;;;-4.28;72.29
36600;BME280;35385;55.668;37.508;2024-03-07T01:14:22;100130.28;;;-4.20;69.20
36600;BME280;35385;55.668;37.508;2024-03-07T01:15:23;100142.41;;;-4.18;67.32
36600;BME280;35385;55.668;37.508;2024-03-07T01:16:23;100139.78;;;-4.16;65.89
36600;BME280;35385;55.668;37.508;2024-03-07T01:17:23;100129.31;;;-4.13;65.07
36600;BME280;35385;55.668;37.508;2024-03-07T01:18:24;100123.19;;;-4.11;64.07
36600;BME280;35385;55.668;37.508;2024-03-07T01:19:24;100129.28;;;-4.12;63.71
36600;BME280;35385;55.668;37.508;2024-03-07T01:20:25;100128.34;;;-4.08;63.24
36600;BME280;35385;55.668;37.508;2024-03-07T01:21:25;100131.84;;;-4.09;62.59
36600;BME280;35385;55.668;37.508;2024-03-07T01:22:26;100130.16;;;-4.11;61.92
36600;BME280;35385;55.668;37.508;2024-03-07T01:23:26;100125.06;;;-4.19;61.12
36600;BME280;35385;55.668;37.508;2024-03-07T01:24:28;100128.59;;;-4.23;60.79
36600;BME280;35385;55.668;37.508;2024-03-07T01:25:28;100128.63;;;-4.26;60.99
36600;BME280;35385;55.668;37.508;2024-03-07T01:26:33;100127.81;;;-4.30;61.13
36600;BME280;35385;55.668;37.508;2024-03-07T01:27:34;100123.50;;;-4.32;60.98
36600;BME280;35385;55.668;37.508;2024-03-07T01:28:35;100127.91;;;-4.34;61.35
36600;BME280;35385;55.668;37.508;2024-03-07T01:29:35;100132.28;;;-4.36;61.62
36600;BME280;35385;55.668;37.508;2024-03-07T01:30:35;100132.28;;;-4.38;61.55
36600;BME280;35385;55.668;37.508;2024-03-07T01:31:36;100124.47;;;-4.38;61.50
36600;BME280;35385;55.668;37.508;2024-03-07T01:32:36;100127.97;;;-4.40;61.86
36600;BME280;35385;55.668;37.508;2024-03-07T01:33:37;100128.84;;;-4.41;62.27
36600;BME280;35385;55.668;37.508;2024-03-07T01:34:37;100126.31;;;-4.46;61.80
36600;BME280;35385;55.668;37.508;2024-03-07T01:35:37;100123.75;;;-4.47;62.62
36600;BME280;35385;55.668;37.508;2024-03-07T01:36:38;100128.97;;;-4.47;62.83
36600;BME280;35385;55.668;37.508;2024-03-07T01:37:38;100128.09;;;-4.48;62.86
36600;BME280;35385;55.668;37.508;2024-03-07T01:38:38;100126.41;;;-4.50;63.49
36600;BME280;35385;55.668;37.508;2024-03-07T01:39:39;100124.63;;;-4.48;63.80
36600;BME280;35385;55.668;37.508;2024-03-07T01:40:40;100120.34;;;-4.52;63.50
36600;BME280;35385;55.668;37.508;2024-03-07T01:41:40;100128.16;;;-4.52;64.07
36600;BME280;35385;55.668;37.508;2024-03-07T01:42:41;100129.94;;;-4.56;64.17
36600;BME280;35385;55.668;37.508;2024-03-07T01:43:41;100132.59;;;-4.60;64.69
36600;BME280;35385;55.668;37.508;2024-03-07T01:44:42;100125.72;;;-4.65;64.75
36600;BME280;35385;55.668;37.508;2024-03-07T01:45:44;100125.75;;;-4.66;65.67
36600;BME280;35385;55.668;37.508;2024-03-07T01:46:45;100128.34;;;-4.65;65.62
36600;BME280;35385;55.668;37.508;2024-03-07T01:47:46;100124.88;;;-4.67;65.43
36600;BME280;35385;55.668;37.508;2024-03-07T01:48:46;100123.97;;;-4.63;65.58
36600;BME280;35385;55.668;37.508;2024-03-07T01:49:48;100127.44;;;-4.64;65.32
36600;BME280;35385;55.668;37.508;2024-03-07T01:50:48;100126.59;;;-4.64;65.20
36600;BME280;35385;55.668;37.508;2024-03-07T01:51:49;100118.78;;;-4.66;65.21
36600;BME280;35385;55.668;37.508;2024-03-07T01:52:49;100124.88;;;-4.65;65.37
36600;BME280;35385;55.668;37.508;2024-03-07T01:53:51;100115.34;;;-4.68;65.93
36600;BME280;35385;55.668;37.508;2024-03-07T01:54:52;100122.28;;;-4.68;65.42
36600;BME280;35385;55.668;37.508;2024-03-07T01:55:52;100119.72;;;-4.73;65.18
36600;BME280;35385;55.668;37.508;2024-03-07T01:56:56;100116.22;;;-4.70;65.83
36600;BME280;35385;55.668;37.508;2024-03-07T01:57:57;100115.34;;;-4.69;65.75
36600;BME280;35385;55.668;37.508;2024-03-07T01:58:59;100115.38;;;-4.71;65.54
36600;BME280;35385;55.668;37.508;2024-03-07T02:00:01;100112.78;;;-4.74;65.04
36600;BME280;35385;55.668;37.508;2024-03-07T02:01:06;100113.72;;;-4.76;65.39
36600;BME280;35385;55.668;37.508;2024-03-07T02:02:07;100117.22;;;-4.79;65.48
36600;BME280;35385;55.668;37.508;2024-03-07T02:03:07;100112.03;;;-4.79;65.50
36600;BME280;35385;55.668;37.508;2024-03-07T02:04:08;100112.81;;;-4.75;65.04
36600;BME280;35385;55.668;37.508;2024-03-07T02:05:08;100111.13;;;-4.76;64.65
36600;BME280;35385;55.668;37.508;2024-03-07T02:06:09;100114.59;;;-4.77;64.86
36600;BME280;35385;55.668;37.508;2024-03-07T02:07:10;100108.53;;;-4.79;64.31
36600;BME280;35385;55.668;37.508;2024-03-07T02:08:11;100104.22;;;-4.82;64.14
36600;BME280;35385;55.668;37.508;2024-03-07T02:09:11;100100.75;;;-4.82;64.73
36600;BME280;35385;55.668;37.508;2024-03-07T02:10:14;100104.25;;;-4.83;64.88
36600;BME280;35385;55.668;37.508;2024-03-07T02:11:14;100104.19;;;-4.79;65.30
36600;BME280;35385;55.668;37.508;2024-03-07T02:12:15;100102.50;;;-4.83;65.88
36600;BME280;35385;55.668;37.508;2024-03-07T02:13:15;100110.28;;;-4.80;66.11
36600;BME280;35385;55.668;37.508;2024-03-07T02:14:16;100093.78;;;-4.80;66.00
36600;BME280;35385;55.668;37.508;2024-03-07T02:15:16;100098.91;;;-4.76;65.68
36600;BME280;35385;55.668;37.508;2024-03-07T02:16:17;100094.50;;;-4.71;65.27
36600;BME280;35385;55.668;37.508;2024-03-07T02:17:18;100098.03;;;-4.75;64.81
36600;BME280;35385;55.668;37.508;2024-03-07T02:18:20;100093.78;;;-4.79;63.23
36600;BME280;35385;55.668;37.508;2024-03-07T02:19:21;100090.31;;;-4.81;63.04
36600;BME280;35385;55.668;37.508;2024-03-07T02:20:21;100095.53;;;-4.81;62.54
36600;BME280;35385;55.668;37.508;2024-03-07T02:21:22;100089.47;;;-4.81;62.38
36600;BME280;35385;55.668;37.508;2024-03-07T02:22:23;100101.63;;;-4.82;61.94
36600;BME280;35385;55.668;37.508;2024-03-07T02:23:26;100095.50;;;-4.79;62.31
36600;BME280;35385;55.668;37.508;2024-03-07T02:24:27;100092.97;;;-4.84;61.66
36600;BME280;35385;55.668;37.508;2024-03-07T02:25:28;100100.75;;;-4.82;62.06
36600;BME280;35385;55.668;37.508;2024-03-07T02:26:28;100102.53;;;-4.86;62.03
36600;BME280;35385;55.668;37.508;2024-03-07T02:27:29;100097.31;;;-4.86;62.30
36600;BME280;35385;55.668;37.508;2024-03-07T02:28:29;100095.59;;;-4.87;62.10
36600;BME280;35385;55.668;37.508;2024-03-07T02:29:30;100093.03;;;-4.90;61.59
36600;BME280;35385;55.668;37.508;2024-03-07T02:30:31;100091.34;;;-4.91;60.98
36600;BME280;35385;55.668;37.508;2024-03-07T02:31:34;100093.94;;;-4.91;61.13
36600;BME280;35385;55.668;37.508;2024-03-07T02:32:37;100087.03;;;-4.93;61.23
36600;BME280;35385;55.668;37.508;2024-03-07T02:33:37;100087.06;;;-4.96;61.14
36600;BME280;35385;55.668;37.508;2024-03-07T02:34:38;100089.69;;;-4.98;61.44
36600;BME280;35385;55.668;37.508;2024-03-07T02:35:38;100089.66;;;-4.96;61.66
36600;BME280;35385;55.668;37.508;2024-03-07T02:36:39;100085.31;;;-4.96;61.70
36600;BME280;35385;55.668;37.508;2024-03-07T02:37:39;100081.00;;;-5.00;61.96
36600;BME280;35385;55.668;37.508;2024-03-07T02:38:39;100082.75;;;-4.99;62.02
36600;BME280;35385;55.668;37.508;2024-03-07T02:39:40;100081.00;;;-5.00;61.46
36600;BME280;35385;55.668;37.508;2024-03-07T02:40:40;100080.94;;;-4.94;61.67
36600;BME280;35385;55.668;37.508;2024-03-07T02:41:41;100082.59;;;-4.90;61.31
36600;BME280;35385;55.668;37.508;2024-03-07T02:42:41;100080.91;;;-4.91;62.37
36600;BME280;35385;55.668;37.508;2024-03-07T02:43:41;100081.81;;;-4.93;63.79
36600;BME280;35385;55.668;37.508;2024-03-07T02:44:42;100084.28;;;-4.86;64.17
36600;BME280;35385;55.668;37.508;2024-03-07T02:45:42;100093.00;;;-4.87;63.86
36600;BME280;35385;55.668;37.508;2024-03-07T02:46:43;100086.22;;;-5.00;63.79
36600;BME280;35385;55.668;37.508;2024-03-07T02:47:43;100085.44;;;-5.05;64.41
36600;BME280;35385;55.668;37.508;2024-03-07T02:48:44;100083.75;;;-5.11;64.47
36600;BME280;35385;55.668;37.508;2024-03-07T02:49:44;100086.44;;;-5.18;64.60
36600;BME280;35385;55.668;37.508;2024-03-07T02:50:45;100087.38;;;-5.21;64.57
36600;BME280;35385;55.668;37.508;2024-03-07T02:51:45;100078.72;;;-5.23;64.59
36600;BME280;35385;55.668;37.508;2024-03-07T02:52:46;100073.50;;;-5.23;63.64
36600;BME280;35385;55.668;37.508;2024-03-07T02:53:46;100081.34;;;-5.24;64.19
36600;BME280;35385;55.668;37.508;2024-03-07T02:54:47;100076.16;;;-5.27;63.98
36600;BME280;35385;55.668;37.508;2024-03-07T02:55:47;100084.81;;;-5.25;63.68
36600;BME280;35385;55.668;37.508;2024-03-07T02:56:47;100074.41;;;-5.25;63.94
36600;BME280;35385;55.668;37.508;2024-03-07T02:57:48;100070.94;;;-5.27;64.19
36600;BME280;35385;55.668;37.508;2024-03-07T02:58:48;100073.53;;;-5.26;63.86
36600;BME280;35385;55.668;37.508;2024-03-07T02:59:49;100070.06;;;-5.26;64.51
36600;BME280;35385;55.668;37.508;2024-03-07T03:00:56;100083.09;;;-5.26;64.48
36600;BME280;35385;55.668;37.508;2024-03-07T03:01:57;100076.13;;;-5.24;64.31
36600;BME280;35385;55.668;37.508;2024-03-07T03:02:57;100079.59;;;-5.24;64.71
36600;BME280;35385;55.668;37.508;2024-03-07T03:03:57;100069.88;;;-5.11;65.40
36600;BME280;35385;55.668;37.508;2024-03-07T03:04:58;100080.41;;;-5.20;65.84
36600;BME280;35385;55.668;37.508;2024-03-07T03:05:58;100077.91;;;-5.29;66.23
36600;BME280;35385;55.668;37.508;2024-03-07T03:06:59;100079.63;;;-5.28;66.30
36600;BME280;35385;55.668;37.508;2024-03-07T03:08:00;100081.41;;;-5.34;66.73
36600;BME280;35385;55.668;37.508;2024-03-07T03:09:00;100083.09;;;-5.28;67.03
36600;BME280;35385;55.668;37.508;2024-03-07T03:10:01;100074.44;;;-5.31;67.37
36600;BME280;35385;55.668;37.508;2024-03-07T03:11:05;100077.06;;;-5.31;68.06
36600;BME280;35385;55.668;37.508;2024-03-07T03:12:09;100074.53;;;-5.35;67.54
36600;BME280;35385;55.668;37.508;2024-03-07T03:13:10;100072.81;;;-5.39;66.28
36600;BME280;35385;55.668;37.508;2024-03-07T03:14:11;100068.50;;;-5.43;65.90
36600;BME280;35385;55.668;37.508;2024-03-07T03:15:12;100065.06;;;-5.46;66.10
36600;BME280;35385;55.668;37.508;2024-03-07T03:16:12;100069.41;;;-5.47;65.90
36600;BME280;35385;55.668;37.508;2024-03-07T03:17:12;100059.88;;;-5.46;66.21
36600;BME280;35385;55.668;37.508;2024-03-07T03:18:14;100060.75;;;-5.47;65.92
36600;BME280;35385;55.668;37.508;2024-03-07T03:19:14;100066.81;;;-5.47;65.84
36600;BME280;35385;55.668;37.508;2024-03-07T03:20:15;100068.53;;;-5.46;65.49
36600;BME280;35385;55.668;37.508;2024-03-07T03:21:24;100069.41;;;-5.47;66.27
36600;BME280;35385;55.668;37.508;2024-03-07T03:22:24;100077.28;;;-5.48;65.64
36600;BME280;35385;55.668;37.508;2024-03-07T03:23:27;100070.34;;;-5.49;66.03
36600;BME280;35385;55.668;37.508;2024-03-07T03:24:27;100068.63;;;-5.50;65.78
36600;BME280;35385;55.668;37.508;2024-03-07T03:25:28;100074.72;;;-5.53;65.83
36600;BME280;35385;55.668;37.508;2024-03-07T03:26:28;100074.72;;;-5.53;66.40
36600;BME280;35385;55.668;37.508;2024-03-07T03:27:28;100074.72;;;-5.53;66.32
36600;BME280;35385;55.668;37.508;2024-03-07T03:28:29;100066.03;;;-5.52;66.25
36600;BME280;35385;55.668;37.508;2024-03-07T03:29:29;100070.38;;;-5.51;66.33
36600;BME280;35385;55.668;37.508;2024-03-07T03:30:30;100073.81;;;-5.49;66.39
36600;BME280;35385;55.668;37.508;2024-03-07T03:31:32;100073.84;;;-5.53;66.30
36600;BME280;35385;55.668;37.508;2024-03-07T03:32:33;100073.88;;;-5.56;66.32
36600;BME280;35385;55.668;37.508;2024-03-07T03:33:34;100074.75;;;-5.57;66.45
36600;BME280;35385;55.668;37.508;2024-03-07T03:34:35;100068.66;;;-5.55;65.76
36600;BME280;35385;55.668;37.508;2024-03-07T03:35:38;100071.25;;;-5.55;64.80
36600;BME280;35385;55.668;37.508;2024-03-07T03:36:39;100072.16;;;-5.59;64.86
36600;BME280;35385;55.668;37.508;2024-03-07T03:37:40;100069.56;;;-5.59;64.72
36600;BME280;35385;55.668;37.508;2024-03-07T03:38:41;100068.69;;;-5.58;65.03
36600;BME280;35385;55.668;37.508;2024-03-07T03:39:41;100074.78;;;-5.62;64.87
36600;BME280;35385;55.668;37.508;2024-03-07T03:40:42;100072.16;;;-5.59;64.51
36600;BME280;35385;55.668;37.508;2024-03-07T03:41:43;100073.00;;;-5.54;64.58
36600;BME280;35385;55.668;37.508;2024-03-07T03:42:43;100085.13;;;-5.53;64.04
36600;BME280;35385;55.668;37.508;2024-03-07T03:43:44;100074.75;;;-5.56;64.49
36600;BME280;35385;55.668;37.508;2024-03-07T03:44:44;100076.50;;;-5.56;64.63
36600;BME280;35385;55.668;37.508;2024-03-07T03:45:45;100070.41;;;-5.55;64.60
36600;BME280;35385;55.668;37.508;2024-03-07T03:46:47;100070.44;;;-5.60;64.75
36600;BME280;35385;55.668;37.508;2024-03-07T03:47:49;100074.84;;;-5.65;65.05
36600;BME280;35385;55.668;37.508;2024-03-07T03:48:49;100067.91;;;-5.66;64.96
36600;BME280;35385;55.668;37.508;2024-03-07T03:49:51;100068.81;;;-5.70;65.22
36600;BME280;35385;55.668;37.508;2024-03-07T03:50:51;100072.31;;;-5.73;65.92
36600;BME280;35385;55.668;37.508;2024-03-07T03:51:52;100073.19;;;-5.72;65.97
36600;BME280;35385;55.668;37.508;2024-03-07T03:52:52;100071.44;;;-5.72;66.68
36600;BME280;35385;55.668;37.508;2024-03-07T03:53:53;100074.03;;;-5.70;66.85
36600;BME280;35385;55.668;37.508;2024-03-07T03:54:53;100067.97;;;-5.71;66.79
36600;BME280;35385;55.668;37.508;2024-03-07T03:55:54;100070.59;;;-5.74;66.46
36600;BME280;35385;55.668;37.508;2024-03-07T03:56:54;100069.78;;;-5.77;66.45
36600;BME280;35385;55.668;37.508;2024-03-07T03:57:54;100067.19;;;-5.77;67.12
36600;BME280;35385;55.668;37.508;2024-03-07T03:58:55;100069.69;;;-5.71;67.53
36600;BME280;35385;55.668;37.508;2024-03-07T03:59:55;100070.56;;;-5.69;67.49
36600;BME280;35385;55.668;37.508;2024-03-07T04:00:56;100072.25;;;-5.65;66.50
36600;BME280;35385;55.668;37.508;2024-03-07T04:01:58;100071.38;;;-5.64;66.22
36600;BME280;35385;55.668;37.508;2024-03-07T04:03:00;100074.84;;;-5.65;66.34
36600;BME280;35385;55.668;37.508;2024-03-07T04:04:00;100073.03;;;-5.60;66.37
36600;BME280;35385;55.668;37.508;2024-03-07T04:05:01;100073.03;;;-5.60;66.27
36600;BME280;35385;55.668;37.508;2024-03-07T04:06:01;100071.38;;;-5.64;65.96
36600;BME280;35385;55.668;37.508;2024-03-07T04:07:02;100063.59;;;-5.65;66.42
36600;BME280;35385;55.668;37.508;2024-03-07T04:08:03;100068.78;;;-5.67;65.85
36600;BME280;35385;55.668;37.508;2024-03-07T04:09:05;100065.38;;;-5.72;66.39
36600;BME280;35385;55.668;37.508;2024-03-07T04:10:06;100067.09;;;-5.71;66.81
36600;BME280;35385;55.668;37.508;2024-03-07T04:11:09;100066.25;;;-5.73;66.20
36600;BME280;35385;55.668;37.508;2024-03-07T04:12:10;100060.19;;;-5.77;67.09
36600;BME280;35385;55.668;37.508;2024-03-07T04:13:13;100059.38;;;-5.77;66.68
36600;BME280;35385;55.668;37.508;2024-03-07T04:14:32;100059.31;;;-5.76;67.17
36600;BME280;35385;55.668;37.508;2024-03-07T04:15:33;100052.44;;;-5.78;66.56
36600;BME280;35385;55.668;37.508;2024-03-07T04:16:33;100058.50;;;-5.78;66.35
36600;BME280;35385;55.668;37.508;2024-03-07T04:17:34;100055.00;;;-5.75;66.39
36600;BME280;35385;55.668;37.508;2024-03-07T04:18:35;100051.56;;;-5.77;66.13
36600;BME280;35385;55.668;37.508;2024-03-07T04:19:35;100048.97;;;-5.79;66.20
36600;BME280;35385;55.668;37.508;2024-03-07T04:20:36;100051.47;;;-5.70;66.32
36600;BME280;35385;55.668;37.508;2024-03-07T04:21:36;100054.94;;;-5.71;65.68
36600;BME280;35385;55.668;37.508;2024-03-07T04:22:37;100048.91;;;-5.74;65.69
36600;BME280;35385;55.668;37.508;2024-03-07T04:23:40;100047.19;;;-5.75;65.90
36600;BME280;35385;55.668;37.508;2024-03-07T04:24:41;100045.44;;;-5.76;65.36
36600;BME280;35385;55.668;37.508;2024-03-07T04:25:41;100046.41;;;-5.82;65.94
36600;BME280;35385;55.668;37.508;2024-03-07T04:26:42;100045.53;;;-5.82;65.50
36600;BME280;35385;55.668;37.508;2024-03-07T04:27:42;100045.50;;;-5.79;65.90
36600;BME280;35385;55.668;37.508;2024-03-07T04:28:42;100047.25;;;-5.78;66.07
36600;BME280;35385;55.668;37.508;2024-03-07T04:29:43;100043.75;;;-5.77;65.47
36600;BME280;35385;55.668;37.508;2024-03-07T04:30:43;100045.50;;;-5.79;64.40
36600;BME280;35385;55.668;37.508;2024-03-07T04:31:44;100043.81;;;-5.83;64.77
36600;BME280;35385;55.668;37.508;2024-03-07T04:32:44;100047.19;;;-5.77;64.43
36600;BME280;35385;55.668;37.508;2024-03-07T04:33:44;100048.06;;;-5.76;64.82
36600;BME280;35385;55.668;37.508;2024-03-07T04:34:46;100042.84;;;-5.76;64.70
36600;BME280;35385;55.668;37.508;2024-03-07T04:35:46;100045.44;;;-5.76;63.91
36600;BME280;35385;55.668;37.508;2024-03-07T04:36:47;100045.44;;;-5.76;63.93
36600;BME280;35385;55.668;37.508;2024-03-07T04:37:47;100048.97;;;-5.77;63.96
36600;BME280;35385;55.668;37.508;2024-03-07T04:38:47;100045.41;;;-5.70;63.61
36600;BME280;35385;55.668;37.508;2024-03-07T04:39:48;100047.13;;;-5.69;63.50
36600;BME280;35385;55.668;37.508;2024-03-07T04:40:48;100048.81;;;-5.65;63.32
36600;BME280;35385;55.668;37.508;2024-03-07T04:41:49;100055.78;;;-5.67;63.20
36600;BME280;35385;55.668;37.508;2024-03-07T04:42:49;100054.94;;;-5.71;62.67
36600;BME280;35385;55.668;37.508;2024-03-07T04:43:50;100054.09;;;-5.71;63.07
36600;BME280;35385;55.668;37.508;2024-03-07T04:44:50;100051.31;;;-5.56;63.57
36600;BME280;35385;55.668;37.508;2024-03-07T04:45:52;100041.66;;;-5.48;63.33
36600;BME280;35385;55.668;37.508;2024-03-07T04:46:52;100047.78;;;-5.50;62.43
36600;BME280;35385;55.668;37.508;2024-03-07T04:47:55;100053.00;;;-5.52;61.82
36600;BME280;35385;55.668;37.508;2024-03-07T04:48:56;100046.97;;;-5.55;60.73
36600;BME280;35385;55.668;37.508;2024-03-07T04:49:57;100051.31;;;-5.54;60.60
36600;BME280;35385;55.668;37.508;2024-03-07T04:50:58;100039.91;;;-5.46;60.56
36600;BME280;35385;55.668;37.508;2024-03-07T04:51:59;100047.66;;;-5.41;60.48
36600;BME280;35385;55.668;37.508;2024-03-07T04:52:59;100040.72;;;-5.41;60.62
36600;BME280;35385;55.668;37.508;2024-03-07T04:54:00;100043.34;;;-5.44;60.53
36600;BME280;35385;55.668;37.508;2024-03-07T04:55:01;100041.63;;;-5.45;59.73
36600;BME280;35385;55.668;37.508;2024-03-07T04:56:01;100042.63;;;-5.55;59.82
36600;BME280;35385;55.668;37.508;2024-03-07T04:57:02;100040.88;;;-5.53;60.28
36600;BME280;35385;55.668;37.508;2024-03-07T04:58:02;100045.19;;;-5.52;60.33
36600;BME280;35385;55.668;37.508;2024-03-07T04:59:03;100047.81;;;-5.53;59.74
36600;BME280;35385;55.668;37.508;2024-03-07T05:00:05;100044.31;;;-5.51;60.09
36600;BME280;35385;55.668;37.508;2024-03-07T05:01:06;100049.44;;;-5.45;60.10
36600;BME280;35385;55.668;37.508;2024-03-07T05:02:06;100049.53;;;-5.49;59.13
36600;BME280;35385;55.668;37.508;2024-03-07T05:03:25;100045.19;;;-5.52;58.96
36600;BME280;35385;55.668;37.508;2024-03-07T05:04:26;100043.50;;;-5.54;58.93
36600;BME280;35385;55.668;37.508;2024-03-07T05:05:29;100042.63;;;-5.53;59.22
36600;BME280;35385;55.668;37.508;2024-03-07T05:06:29;100040.03;;;-5.55;58.79
36600;BME280;35385;55.668;37.508;2024-03-07T05:07:33;100041.75;;;-5.52;58.97
36600;BME280;35385;55.668;37.508;2024-03-07T05:08:35;100036.56;;;-5.57;59.41
36600;BME280;35385;55.668;37.508;2024-03-07T05:09:36;100041.75;;;-5.54;58.87
36600;BME280;35385;55.668;37.508;2024-03-07T05:10:36;100029.56;;;-5.49;58.71
36600;BME280;35385;55.668;37.508;2024-03-07T05:11:36;100033.84;;;-5.46;58.75
36600;BME280;35385;55.668;37.508;2024-03-07T05:12:37;100032.88;;;-5.38;58.88
36600;BME280;35385;55.668;37.508;2024-03-07T05:13:38;100034.66;;;-5.43;58.32
36600;BME280;35385;55.668;37.508;2024-03-07T05:14:38;100036.41;;;-5.42;58.54